sensor_id;sensor_type;location;lat;lon;timestamp;P1;durP1;ratioP1;P2;durP2;ratioP2
83801;SDS011;73818;51.646;15.140;2023-11-22T00:07:57;5;;;3;;
83801;SDS011;73818;51.646;15.140;2023-11-22T00:14:08;6;;;3;;
83801;SDS011;73818;51.646;15.140;2023-11-22T00:20:20;5;;;2;;
83801;SDS011;73818;51.646;15.140;2023-11-22T00:26:31;5;;;3;;
83801;SDS011;73818;51.646;15.140;2023-11-22T00:32:43;5;;;2;;
83801;SDS011;73818;51.646;15.140;2023-11-22T00:38:54;5;;;3;;
83801;SDS011;73818;51.646;15.140;2023-11-22T00:45:07;5;;;3;;
83801;SDS011;73818;51.646;15.140;2023-11-22T00:51:18;4;;;2;;
83801;SDS011;73818;51.646;15.140;2023-11-22T00:57:30;5;;;2;;
83801;SDS011;73818;51.646;15.140;2023-11-22T01:03:42;5;;;2;;
83801;SDS011;73818;51.646;15.140;2023-11-22T01:09:53;5;;;3;;
83801;SDS011;73818;51.646;15.140;2023-11-22T01:16:05;5;;;2;;
83801;SDS011;73818;51.646;15.140;2023-11-22T01:22:16;4;;;2;;
83801;SDS011;73818;51.646;15.140;2023-11-22T01:28:28;4;;;2;;
83801;SDS011;73818;51.646;15.140;2023-11-22T01:34:40;5;;;2;;
83801;SDS011;73818;51.646;15.140;2023-11-22T01:40:51;5;;;2;;
83801;SDS011;73818;51.646;15.140;2023-11-22T01:47:04;4;;;2;;
83801;SDS011;73818;51.646;15.140;2023-11-22T01:53:14;5;;;2;;
83801;SDS011;73818;51.646;15.140;2023-11-22T01:59:27;5;;;2;;
83801;SDS011;73818;51.646;15.140;2023-11-22T02:05:41;5;;;2;;
83801;SDS011;73818;51.646;15.140;2023-11-22T02:11:49;5;;;2;;
83801;SDS011;73818;51.646;15.140;2023-11-22T02:18:01;4;;;2;;
83801;SDS011;73818;51.646;15.140;2023-11-22T02:24:12;5;;;2;;
83801;SDS011;73818;51.646;15.140;2023-11-22T02:30:23;4;;;2;;
83801;SDS011;73818;51.646;15.140;2023-11-22T02:36:35;5;;;2;;
83801;SDS011;73818;51.646;15.140;2023-11-22T02:42:47;4;;;2;;
83801;SDS011;73818;51.646;15.140;2023-11-22T02:48:59;4;;;2;;
83801;SDS011;73818;51.646;15.140;2023-11-22T02:55:11;4;;;2;;
83801;SDS011;73818;51.646;15.140;2023-11-22T03:01:23;5;;;2;;
83801;SDS011;73818;51.646;15.140;2023-11-22T03:07:34;5;;;2;;
83801;SDS011;73818;51.646;15.140;2023-11-22T03:13:46;5;;;2;;
83801;SDS011;73818;51.646;15.140;2023-11-22T03:19:58;4;;;2;;
83801;SDS011;73818;51.646;15.140;2023-11-22T03:26:10;4;;;2;;
83801;SDS011;73818;51.646;15.140;2023-11-22T03:32:22;4;;;2;;
83801;SDS011;73818;51.646;15.140;2023-11-22T03:38:34;4;;;2;;
83801;SDS011;73818;51.646;15.140;2023-11-22T03:44:45;4;;;2;;
83801;SDS011;73818;51.646;15.140;2023-11-22T03:50:57;4;;;2;;
83801;SDS011;73818;51.646;15.140;2023-11-22T03:57:08;4;;;2;;
83801;SDS011;73818;51.646;15.140;2023-11-22T04:03:20;4;;;2;;
83801;SDS011;73818;51.646;15.140;2023-11-22T04:09:31;4;;;2;;
83801;SDS011;73818;51.646;15.140;2023-11-22T04:15:42;4;;;2;;
83801;SDS011;73818;51.646;15.140;2023-11-22T04:21:53;4;;;2;;
83801;SDS011;73818;51.646;15.140;2023-11-22T04:28:06;4;;;2;;
83801;SDS011;73818;51.646;15.140;2023-11-22T04:34:18;4;;;2;;
83801;SDS011;73818;51.646;15.140;2023-11-22T04:40:29;4;;;2;;
83801;SDS011;73818;51.646;15.140;2023-11-22T04:46:41;4;;;2;;
83801;SDS011;73818;51.646;15.140;2023-11-22T04:52:52;4;;;2;;
83801;SDS011;73818;51.646;15.140;2023-11-22T04:59:04;4;;;2;;
83801;SDS011;73818;51.646;15.140;2023-11-22T05:05:16;4;;;2;;
83801;SDS011;73818;51.646;15.140;2023-11-22T05:11:27;4;;;2;;
83801;SDS011;73818;51.646;15.140;2023-11-22T05:17:39;4;;;2;;
83801;SDS011;73818;51.646;15.140;2023-11-22T05:23:50;4;;;2;;
83801;SDS011;73818;51.646;15.140;2023-11-22T05:30:03;3;;;2;;
83801;SDS011;73818;51.646;15.140;2023-11-22T05:36:14;4;;;2;;
83801;SDS011;73818;51.646;15.140;2023-11-22T05:42:25;4;;;2;;
83801;SDS011;73818;51.646;15.140;2023-11-22T05:48:37;139;;;24;;
83801;SDS011;73818;51.646;15.140;2023-11-22T05:54:49;77;;;14;;
83801;SDS011;73818;51.646;15.140;2023-11-22T06:01:00;51;;;11;;
83801;SDS011;73818;51.646;15.140;2023-11-22T06:07:12;42;;;9;;
83801;SDS011;73818;51.646;15.140;2023-11-22T06:13:23;28;;;7;;
83801;SDS011;73818;51.646;15.140;2023-11-22T06:19:35;21;;;6;;
83801;SDS011;73818;51.646;15.140;2023-11-22T06:25:46;19;;;5;;
83801;SDS011;73818;51.646;15.140;2023-11-22T06:31:59;17;;;5;;
83801;SDS011;73818;51.646;15.140;2023-11-22T06:38:10;13;;;4;;
83801;SDS011;73818;51.646;15.140;2023-11-22T06:44:22;11;;;3;;
83801;SDS011;73818;51.646;15.140;2023-11-22T06:53:30;9;;;3;;
83801;SDS011;73818;51.646;15.140;2023-11-22T06:59:41;10;;;3;;
83801;SDS011;73818;51.646;15.140;2023-11-22T07:05:54;10;;;3;;
83801;SDS011;73818;51.646;15.140;2023-11-22T07:12:05;7;;;3;;
83801;SDS011;73818;51.646;15.140;2023-11-22T07:18:17;7;;;3;;
83801;SDS011;73818;51.646;15.140;2023-11-22T07:24:28;8;;;3;;
83801;SDS011;73818;51.646;15.140;2023-11-22T07:30:40;6;;;3;;
83801;SDS011;73818;51.646;15.140;2023-11-22T07:36:53;6;;;3;;
83801;SDS011;73818;51.646;15.140;2023-11-22T07:43:04;6;;;3;;
83801;SDS011;73818;51.646;15.140;2023-11-22T07:49:16;6;;;3;;
83801;SDS011;73818;51.646;15.140;2023-11-22T07:55:28;6;;;2;;
83801;SDS011;73818;51.646;15.140;2023-11-22T08:01:42;7;;;3;;
83801;SDS011;73818;51.646;15.140;2023-11-22T08:07:52;7;;;3;;
83801;SDS011;73818;51.646;15.140;2023-11-22T08:14:03;6;;;3;;
83801;SDS011;73818;51.646;15.140;2023-11-22T08:20:15;6;;;3;;
83801;SDS011;73818;51.646;15.140;2023-11-22T08:26:27;5;;;3;;
83801;SDS011;73818;51.646;15.140;2023-11-22T08:32:42;5;;;3;;
83801;SDS011;73818;51.646;15.140;2023-11-22T08:38:50;6;;;3;;
83801;SDS011;73818;51.646;15.140;2023-11-22T08:45:02;6;;;3;;
83801;SDS011;73818;51.646;15.140;2023-11-22T08:51:13;7;;;3;;
83801;SDS011;73818;51.646;15.140;2023-11-22T08:57:24;7;;;3;;
83801;SDS011;73818;51.646;15.140;2023-11-22T09:03:36;7;;;3;;
83801;SDS011;73818;51.646;15.140;2023-11-22T09:09:48;7;;;3;;
83801;SDS011;73818;51.646;15.140;2023-11-22T09:16:00;7;;;4;;
83801;SDS011;73818;51.646;15.140;2023-11-22T09:22:11;7;;;4;;
83801;SDS011;73818;51.646;15.140;2023-11-22T09:28:23;7;;;4;;
83801;SDS011;73818;51.646;15.140;2023-11-22T09:34:35;7;;;3;;
83801;SDS011;73818;51.646;15.140;2023-11-22T09:40:47;6;;;3;;
83801;SDS011;73818;51.646;15.140;2023-11-22T09:46:58;7;;;3;;
83801;SDS011;73818;51.646;15.140;2023-11-22T09:59:21;6;;;3;;
83801;SDS011;73818;51.646;15.140;2023-11-22T10:05:32;6;;;3;;
83801;SDS011;73818;51.646;15.140;2023-11-22T10:11:44;6;;;3;;
83801;SDS011;73818;51.646;15.140;2023-11-22T10:17:57;6;;;3;;
83801;SDS011;73818;51.646;15.140;2023-11-22T10:24:08;6;;;3;;
83801;SDS011;73818;51.646;15.140;2023-11-22T10:30:19;5;;;3;;
83801;SDS011;73818;51.646;15.140;2023-11-22T10:36:30;5;;;2;;
83801;SDS011;73818;51.646;15.140;2023-11-22T10:42:42;5;;;3;;
83801;SDS011;73818;51.646;15.140;2023-11-22T10:48:54;5;;;3;;
83801;SDS011;73818;51.646;15.140;2023-11-22T10:55:06;5;;;3;;
83801;SDS011;73818;51.646;15.140;2023-11-22T11:01:18;5;;;2;;
83801;SDS011;73818;51.646;15.140;2023-11-22T11:07:30;5;;;2;;
83801;SDS011;73818;51.646;15.140;2023-11-22T11:13:42;4;;;2;;
83801;SDS011;73818;51.646;15.140;2023-11-22T11:19:54;5;;;2;;
83801;SDS011;73818;51.646;15.140;2023-11-22T11:26:09;5;;;2;;
83801;SDS011;73818;51.646;15.140;2023-11-22T11:38:31;5;;;2;;
83801;SDS011;73818;51.646;15.140;2023-11-22T11:50:52;4;;;2;;
83801;SDS011;73818;51.646;15.140;2023-11-22T11:57:04;4;;;2;;
83801;SDS011;73818;51.646;15.140;2023-11-22T12:03:15;4;;;2;;
83801;SDS011;73818;51.646;15.140;2023-11-22T12:09:26;4;;;2;;
83801;SDS011;73818;51.646;15.140;2023-11-22T12:15:38;4;;;2;;
83801;SDS011;73818;51.646;15.140;2023-11-22T12:21:49;4;;;2;;
83801;SDS011;73818;51.646;15.140;2023-11-22T12:28:01;4;;;2;;
83801;SDS011;73818;51.646;15.140;2023-11-22T12:34:15;4;;;2;;
83801;SDS011;73818;51.646;15.140;2023-11-22T12:52:47;7;;;2;;
83801;SDS011;73818;51.646;15.140;2023-11-22T12:58:59;8;;;3;;
83801;SDS011;73818;51.646;15.140;2023-11-22T13:05:10;8;;;3;;
83801;SDS011;73818;51.646;15.140;2023-11-22T13:11:22;9;;;3;;
83801;SDS011;73818;51.646;15.140;2023-11-22T13:17:33;11;;;4;;
83801;SDS011;73818;51.646;15.140;2023-11-22T13:23:45;11;;;4;;
83801;SDS011;73818;51.646;15.140;2023-11-22T13:29:56;10;;;3;;
83801;SDS011;73818;51.646;15.140;2023-11-22T13:36:08;9;;;3;;
83801;SDS011;73818;51.646;15.140;2023-11-22T13:42:19;10;;;3;;
83801;SDS011;73818;51.646;15.140;2023-11-22T13:48:31;9;;;3;;
83801;SDS011;73818;51.646;15.140;2023-11-22T13:54:43;8;;;3;;
83801;SDS011;73818;51.646;15.140;2023-11-22T14:00:54;8;;;3;;
83801;SDS011;73818;51.646;15.140;2023-11-22T14:07:06;8;;;3;;
83801;SDS011;73818;51.646;15.140;2023-11-22T14:13:18;8;;;3;;
83801;SDS011;73818;51.646;15.140;2023-11-22T14:19:29;8;;;3;;
83801;SDS011;73818;51.646;15.140;2023-11-22T14:25:41;7;;;3;;
83801;SDS011;73818;51.646;15.140;2023-11-22T14:31:52;8;;;3;;
83801;SDS011;73818;51.646;15.140;2023-11-22T14:38:04;7;;;3;;
83801;SDS011;73818;51.646;15.140;2023-11-22T14:44:15;7;;;3;;
83801;SDS011;73818;51.646;15.140;2023-11-22T14:50:27;7;;;3;;
83801;SDS011;73818;51.646;15.140;2023-11-22T14:56:39;6;;;2;;
83801;SDS011;73818;51.646;15.140;2023-11-22T15:02:50;7;;;3;;
83801;SDS011;73818;51.646;15.140;2023-11-22T15:09:02;7;;;3;;
83801;SDS011;73818;51.646;15.140;2023-11-22T15:15:17;5;;;2;;
83801;SDS011;73818;51.646;15.140;2023-11-22T15:21:25;6;;;2;;
83801;SDS011;73818;51.646;15.140;2023-11-22T15:27:36;6;;;3;;
83801;SDS011;73818;51.646;15.140;2023-11-22T15:33:48;5;;;3;;
83801;SDS011;73818;51.646;15.140;2023-11-22T15:40:00;6;;;2;;
83801;SDS011;73818;51.646;15.140;2023-11-22T15:46:12;5;;;3;;
83801;SDS011;73818;51.646;15.140;2023-11-22T15:52:23;5;;;2;;
83801;SDS011;73818;51.646;15.140;2023-11-22T15:58:35;7;;;3;;
83801;SDS011;73818;51.646;15.140;2023-11-22T16:04:47;8;;;3;;
83801;SDS011;73818;51.646;15.140;2023-11-22T16:10:59;7;;;3;;
83801;SDS011;73818;51.646;15.140;2023-11-22T16:17:11;7;;;3;;
83801;SDS011;73818;51.646;15.140;2023-11-22T16:23:22;6;;;3;;
83801;SDS011;73818;51.646;15.140;2023-11-22T16:29:34;6;;;3;;
83801;SDS011;73818;51.646;15.140;2023-11-22T16:35:46;6;;;3;;
83801;SDS011;73818;51.646;15.140;2023-11-22T16:41:58;7;;;3;;
83801;SDS011;73818;51.646;15.140;2023-11-22T16:48:10;6;;;3;;
83801;SDS011;73818;51.646;15.140;2023-11-22T16:54:21;8;;;3;;
83801;SDS011;73818;51.646;15.140;2023-11-22T17:00:33;6;;;3;;
83801;SDS011;73818;51.646;15.140;2023-11-22T17:06:44;6;;;3;;
83801;SDS011;73818;51.646;15.140;2023-11-22T17:12:56;6;;;3;;
83801;SDS011;73818;51.646;15.140;2023-11-22T17:19:08;6;;;4;;
83801;SDS011;73818;51.646;15.140;2023-11-22T17:25:18;6;;;3;;
83801;SDS011;73818;51.646;15.140;2023-11-22T17:31:30;6;;;3;;
83801;SDS011;73818;51.646;15.140;2023-11-22T17:37:41;6;;;4;;
83801;SDS011;73818;51.646;15.140;2023-11-22T17:43:53;6;;;3;;
83801;SDS011;73818;51.646;15.140;2023-11-22T17:50:04;6;;;3;;
83801;SDS011;73818;51.646;15.140;2023-11-22T17:56:16;6;;;3;;
83801;SDS011;73818;51.646;15.140;2023-11-22T18:02:28;6;;;3;;
83801;SDS011;73818;51.646;15.140;2023-11-22T18:08:40;6;;;4;;
83801;SDS011;73818;51.646;15.140;2023-11-22T18:14:51;7;;;4;;
83801;SDS011;73818;51.646;15.140;2023-11-22T18:21:03;6;;;4;;
83801;SDS011;73818;51.646;15.140;2023-11-22T18:27:14;7;;;4;;
83801;SDS011;73818;51.646;15.140;2023-11-22T18:33:26;7;;;4;;
83801;SDS011;73818;51.646;15.140;2023-11-22T18:39:37;8;;;4;;
83801;SDS011;73818;51.646;15.140;2023-11-22T18:45:49;8;;;4;;
83801;SDS011;73818;51.646;15.140;2023-11-22T18:52:02;7;;;4;;
83801;SDS011;73818;51.646;15.140;2023-11-22T18:58:13;7;;;4;;
83801;SDS011;73818;51.646;15.140;2023-11-22T19:04:25;8;;;4;;
83801;SDS011;73818;51.646;15.140;2023-11-22T19:10:36;8;;;4;;
83801;SDS011;73818;51.646;15.140;2023-11-22T19:16:47;8;;;4;;
83801;SDS011;73818;51.646;15.140;2023-11-22T19:22:59;7;;;4;;
83801;SDS011;73818;51.646;15.140;2023-11-22T19:29:10;8;;;5;;
83801;SDS011;73818;51.646;15.140;2023-11-22T19:35:22;8;;;4;;
83801;SDS011;73818;51.646;15.140;2023-11-22T19:41:33;7;;;4;;
83801;SDS011;73818;51.646;15.140;2023-11-22T19:47:45;8;;;5;;
83801;SDS011;73818;51.646;15.140;2023-11-22T19:53:57;8;;;4;;
83801;SDS011;73818;51.646;15.140;2023-11-22T20:00:10;8;;;4;;
83801;SDS011;73818;51.646;15.140;2023-11-22T20:06:21;7;;;4;;
83801;SDS011;73818;51.646;15.140;2023-11-22T20:12:33;8;;;5;;
83801;SDS011;73818;51.646;15.140;2023-11-22T20:18:44;8;;;4;;
83801;SDS011;73818;51.646;15.140;2023-11-22T20:24:56;8;;;4;;
83801;SDS011;73818;51.646;15.140;2023-11-22T20:31:10;7;;;4;;
83801;SDS011;73818;51.646;15.140;2023-11-22T20:37:19;7;;;4;;
83801;SDS011;73818;51.646;15.140;2023-11-22T20:43:31;7;;;4;;
83801;SDS011;73818;51.646;15.140;2023-11-22T20:49:42;8;;;4;;
83801;SDS011;73818;51.646;15.140;2023-11-22T20:55:54;8;;;4;;
83801;SDS011;73818;51.646;15.140;2023-11-22T21:02:05;7;;;4;;
83801;SDS011;73818;51.646;15.140;2023-11-22T21:08:16;7;;;4;;
83801;SDS011;73818;51.646;15.140;2023-11-22T21:14:28;7;;;4;;
83801;SDS011;73818;51.646;15.140;2023-11-22T21:20:40;7;;;5;;
83801;SDS011;73818;51.646;15.140;2023-11-22T21:26:51;7;;;4;;
83801;SDS011;73818;51.646;15.140;2023-11-22T21:33:04;7;;;4;;
83801;SDS011;73818;51.646;15.140;2023-11-22T21:39:15;8;;;4;;
83801;SDS011;73818;51.646;15.140;2023-11-22T21:45:27;8;;;4;;
83801;SDS011;73818;51.646;15.140;2023-11-22T21:51:39;7;;;4;;
83801;SDS011;73818;51.646;15.140;2023-11-22T21:57:50;7;;;4;;
83801;SDS011;73818;51.646;15.140;2023-11-22T22:04:01;7;;;4;;
83801;SDS011;73818;51.646;15.140;2023-11-22T22:10:13;7;;;4;;
83801;SDS011;73818;51.646;15.140;2023-11-22T22:16:24;7;;;4;;
83801;SDS011;73818;51.646;15.140;2023-11-22T22:22:36;7;;;3;;
83801;SDS011;73818;51.646;15.140;2023-11-22T22:28:47;6;;;4;;
83801;SDS011;73818;51.646;15.140;2023-11-22T22:34:59;6;;;4;;
83801;SDS011;73818;51.646;15.140;2023-11-22T22:47:22;7;;;4;;
83801;SDS011;73818;51.646;15.140;2023-11-22T22:53:34;6;;;4;;
83801;SDS011;73818;51.646;15.140;2023-11-22T22:59:47;7;;;4;;
83801;SDS011;73818;51.646;15.140;2023-11-22T23:05:58;6;;;4;;
83801;SDS011;73818;51.646;15.140;2023-11-22T23:12:09;6;;;4;;
83801;SDS011;73818;51.646;15.140;2023-11-22T23:18:21;6;;;3;;
83801;SDS011;73818;51.646;15.140;2023-11-22T23:24:33;7;;;3;;
83801;SDS011;73818;51.646;15.140;2023-11-22T23:30:44;6;;;4;;
83801;SDS011;73818;51.646;15.140;2023-11-22T23:36:55;6;;;4;;
83801;SDS011;73818;51.646;15.140;2023-11-22T23:43:07;7;;;3;;
83801;SDS011;73818;51.646;15.140;2023-11-22T23:49:19;7;;;4;;
83801;SDS011;73818;51.646;15.140;2023-11-22T23:55:30;7;;;3;;
